sensor_id;sensor_type;location;lat;lon;timestamp;pressure;altitude;pressure_sealevel;temperature;humidity
74437;BME280;62868;52.360;30.424;2022-08-25T00:02:54;1033.1;;;18.9;52
74437;BME280;62868;52.360;30.424;2022-08-25T00:08:16;1033.1;;;18.9;52.1
74437;BME280;62868;52.360;30.424;2022-08-25T00:12:54;1033.1;;;18.8;52.2
74437;BME280;62868;52.360;30.424;2022-08-25T00:18:04;1033.1;;;18.8;52.3
74437;BME280;62868;52.360;30.424;2022-08-25T00:23:17;1033.1;;;18.7;52.5
74437;BME280;62868;52.360;30.424;2022-08-25T00:28:30;1033.1;;;18.6;52.7
74437;BME280;62868;52.360;30.424;2022-08-25T00:33:18;1033.1;;;18.6;52.8
74437;BME280;62868;52.360;30.424;2022-08-25T00:38:04;1033.1;;;18.5;52.9
74437;BME280;62868;52.360;30.424;2022-08-25T00:43:35;1033.1;;;18.5;53
74437;BME280;62868;52.360;30.424;2022-08-25T00:48:32;1033.1;;;18.5;53.1
74437;BME280;62868;52.360;30.424;2022-08-25T00:53:29;1033;;;18.5;53
74437;BME280;62868;52.360;30.424;2022-08-25T00:57:55;1033;;;18.4;53.2
74437;BME280;62868;52.360;30.424;2022-08-25T01:02:54;1033;;;18.3;53.4
74437;BME280;62868;52.360;30.424;2022-08-25T01:07:55;1033;;;18.2;53.6
74437;BME280;62868;52.360;30.424;2022-08-25T01:13:20;1033;;;18.2;53.7
74437;BME280;62868;52.360;30.424;2022-08-25T01:18:16;1033;;;18.1;53.9
74437;BME280;62868;52.360;30.424;2022-08-25T01:23:28;1033;;;18;54.1
74437;BME280;62868;52.360;30.424;2022-08-25T01:28:20;1033.1;;;18;54.3
74437;BME280;62868;52.360;30.424;2022-08-25T01:33:20;1033;;;17.9;54.3
74437;BME280;62868;52.360;30.424;2022-08-25T01:38:17;1033.1;;;17.8;54.5
74437;BME280;62868;52.360;30.424;2022-08-25T01:43:34;1033.1;;;17.8;54.5
74437;BME280;62868;52.360;30.424;2022-08-25T01:48:05;1033.1;;;17.8;54.7
74437;BME280;62868;52.360;30.424;2022-08-25T01:52:59;1033.1;;;17.7;54.9
74437;BME280;62868;52.360;30.424;2022-08-25T01:58:14;1033.1;;;17.6;55
74437;BME280;62868;52.360;30.424;2022-08-25T02:03:30;1033.1;;;17.6;55.1
74437;BME280;62868;52.360;30.424;2022-08-25T02:08:32;1033.2;;;17.5;55.2
74437;BME280;62868;52.360;30.424;2022-08-25T02:13:15;1033.2;;;17.5;55.4
74437;BME280;62868;52.360;30.424;2022-08-25T02:18:22;1033.2;;;17.4;55.4
74437;BME280;62868;52.360;30.424;2022-08-25T02:23:26;1033.1;;;17.4;55.4
74437;BME280;62868;52.360;30.424;2022-08-25T02:28:04;1033.1;;;17.4;55.5
74437;BME280;62868;52.360;30.424;2022-08-25T02:33:02;1033.1;;;17.3;55.7
74437;BME280;62868;52.360;30.424;2022-08-25T02:37:54;1033.1;;;17.3;55.8
74437;BME280;62868;52.360;30.424;2022-08-25T02:43:04;1033.1;;;17.3;55.9
74437;BME280;62868;52.360;30.424;2022-08-25T02:48:04;1033.1;;;17.3;56
74437;BME280;62868;52.360;30.424;2022-08-25T02:53:04;1033.1;;;17.3;55.9
74437;BME280;62868;52.360;30.424;2022-08-25T02:58:35;1033.1;;;17.3;56
74437;BME280;62868;52.360;30.424;2022-08-25T03:03:20;1033.1;;;17.4;56
74437;BME280;62868;52.360;30.424;2022-08-25T03:08:14;1033.1;;;17.4;56
74437;BME280;62868;52.360;30.424;2022-08-25T03:13:14;1033.1;;;17.4;56.1
74437;BME280;62868;52.360;30.424;2022-08-25T03:18:22;1033.1;;;17.5;56
74437;BME280;62868;52.360;30.424;2022-08-25T03:23:34;1033.1;;;17.6;56
74437;BME280;62868;52.360;30.424;2022-08-25T03:27:54;1033.1;;;17.7;55.8
74437;BME280;62868;52.360;30.424;2022-08-25T03:32:54;1033.1;;;17.9;55.6
74437;BME280;62868;52.360;30.424;2022-08-25T03:37:55;1033.1;;;18.1;55.5
74437;BME280;62868;52.360;30.424;2022-08-25T03:43:22;1033.1;;;18.3;55.2
74437;BME280;62868;52.360;30.424;2022-08-25T03:48:16;1033.1;;;19.4;53.9
74437;BME280;62868;52.360;30.424;2022-08-25T03:53:26;1033.1;;;22.2;49.8
74437;BME280;62868;52.360;30.424;2022-08-25T03:58:22;1033;;;24.9;46.3
74437;BME280;62868;52.360;30.424;2022-08-25T04:03:20;1032.9;;;27.1;43.9
74437;BME280;62868;52.360;30.424;2022-08-25T04:08:22;1032.9;;;29.1;41.4
74437;BME280;62868;52.360;30.424;2022-08-25T04:13:32;1032.9;;;29.5;40.9
74437;BME280;62868;52.360;30.424;2022-08-25T04:17:54;1032.8;;;28.2;43.3
74437;BME280;62868;52.360;30.424;2022-08-25T04:23:04;1032.9;;;27;45
74437;BME280;62868;52.360;30.424;2022-08-25T04:28:04;1032.9;;;26.1;45.7
74437;BME280;62868;52.360;30.424;2022-08-25T04:33:32;1033;;;25.5;45.9
74437;BME280;62868;52.360;30.424;2022-08-25T04:38:34;1033;;;25.2;45.8
74437;BME280;62868;52.360;30.424;2022-08-25T04:43:16;1032.9;;;25.1;45.8
74437;BME280;62868;52.360;30.424;2022-08-25T04:48:34;1032.9;;;25;45.7
74437;BME280;62868;52.360;30.424;2022-08-25T04:52:54;1032.9;;;24.9;45.6
74437;BME280;62868;52.360;30.424;2022-08-25T04:58:13;1032.9;;;24.9;45.4
74437;BME280;62868;52.360;30.424;2022-08-25T05:02:58;1032.9;;;24.9;45.3
74437;BME280;62868;52.360;30.424;2022-08-25T05:07:54;1032.8;;;25;45.1
74437;BME280;62868;52.360;30.424;2022-08-25T05:12:54;1032.8;;;25.3;44.8
74437;BME280;62868;52.360;30.424;2022-08-25T05:18:04;1032.8;;;25.3;44.7
74437;BME280;62868;52.360;30.424;2022-08-25T05:23:34;1032.7;;;25.4;44.5
74437;BME280;62868;52.360;30.424;2022-08-25T05:28:18;1032.6;;;25.6;44.1
74437;BME280;62868;52.360;30.424;2022-08-25T05:33:30;1032.6;;;26;43.8
74437;BME280;62868;52.360;30.424;2022-08-25T05:38:24;1032.6;;;26.3;43.5
74437;BME280;62868;52.360;30.424;2022-08-25T05:43:22;1032.6;;;26.7;43.2
74437;BME280;62868;52.360;30.424;2022-08-25T05:48:32;1032.6;;;27;42.8
74437;BME280;62868;52.360;30.424;2022-08-25T05:53:35;1032.6;;;27.4;42.5
74437;BME280;62868;52.360;30.424;2022-08-25T05:58:25;1032.6;;;27.7;42.2
74437;BME280;62868;52.360;30.424;2022-08-25T06:03:12;1032.6;;;27.8;42
74437;BME280;62868;52.360;30.424;2022-08-25T06:07:54;1032.6;;;27.9;41.8
74437;BME280;62868;52.360;30.424;2022-08-25T06:13:32;1032.6;;;28;41.5
74437;BME280;62868;52.360;30.424;2022-08-25T06:18:22;1032.5;;;28.1;41.4
74437;BME280;62868;52.360;30.424;2022-08-25T06:23:32;1032.4;;;28.4;41.1
74437;BME280;62868;52.360;30.424;2022-08-25T06:28:24;1032.4;;;28.9;40.7
74437;BME280;62868;52.360;30.424;2022-08-25T06:33:20;1032.4;;;29.4;40.2
74437;BME280;62868;52.360;30.424;2022-08-25T06:38:12;1032.4;;;29.9;39.8
74437;BME280;62868;52.360;30.424;2022-08-25T06:43:33;1032.4;;;30.2;39.6
74437;BME280;62868;52.360;30.424;2022-08-25T06:48:34;1032.4;;;30.2;39.3
74437;BME280;62868;52.360;30.424;2022-08-25T06:52:54;1032.4;;;30.4;39
74437;BME280;62868;52.360;30.424;2022-08-25T06:58:04;1032.4;;;30.7;38.6
74437;BME280;62868;52.360;30.424;2022-08-25T07:03:30;1032.4;;;30.8;38.4
74437;BME280;62868;52.360;30.424;2022-08-25T07:08:24;1032.4;;;31;38.1
74437;BME280;62868;52.360;30.424;2022-08-25T07:13:32;1032.3;;;31.2;37.8
74437;BME280;62868;52.360;30.424;2022-08-25T07:18:22;1032.3;;;31.8;37.4
74437;BME280;62868;52.360;30.424;2022-08-25T07:23:26;1032.2;;;32.1;37.1
74437;BME280;62868;52.360;30.424;2022-08-25T07:28:34;1032.2;;;32;37
74437;BME280;62868;52.360;30.424;2022-08-25T07:33:03;1032.2;;;32;36.9
74437;BME280;62868;52.360;30.424;2022-08-25T07:38:12;1032.1;;;32.2;36.7
74437;BME280;62868;52.360;30.424;2022-08-25T07:43:26;1032.1;;;32.4;36.4
74437;BME280;62868;52.360;30.424;2022-08-25T07:48:06;1032;;;32.7;36.1
74437;BME280;62868;52.360;30.424;2022-08-25T07:53:24;1031.9;;;32.9;35.7
74437;BME280;62868;52.360;30.424;2022-08-25T07:58:05;1031.8;;;33.2;35.4
74437;BME280;62868;52.360;30.424;2022-08-25T08:03:34;1031.8;;;33.5;35.1
74437;BME280;62868;52.360;30.424;2022-08-25T08:08:32;1031.8;;;33.7;34.9
74437;BME280;62868;52.360;30.424;2022-08-25T08:13:10;1031.8;;;33.8;34.6
74437;BME280;62868;52.360;30.424;2022-08-25T08:18:34;1031.8;;;33.8;34.4
74437;BME280;62868;52.360;30.424;2022-08-25T08:23:32;1031.8;;;33.9;34.1
74437;BME280;62868;52.360;30.424;2022-08-25T08:28:36;1031.8;;;34.4;33.8
74437;BME280;62868;52.360;30.424;2022-08-25T08:32:54;1031.8;;;34.5;33.4
74437;BME280;62868;52.360;30.424;2022-08-25T08:37:54;1031.7;;;34.6;33.1
74437;BME280;62868;52.360;30.424;2022-08-25T08:43:35;1031.6;;;34.8;32.9
74437;BME280;62868;52.360;30.424;2022-08-25T08:48:41;1031.6;;;35.1;32.5
74437;BME280;62868;52.360;30.424;2022-08-25T08:53:10;1031.6;;;35.1;32.3
74437;BME280;62868;52.360;30.424;2022-08-25T08:58:40;1031.5;;;35.2;31.8
74437;BME280;62868;52.360;30.424;2022-08-25T09:03:25;1031.5;;;35.5;31.3
74437;BME280;62868;52.360;30.424;2022-08-25T09:08:11;1031.5;;;35.6;31
74437;BME280;62868;52.360;30.424;2022-08-25T09:18:52;1031.4;;;35.9;30.2
74437;BME280;62868;52.360;30.424;2022-08-25T09:23:09;1031.3;;;36;29.7
74437;BME280;62868;52.360;30.424;2022-08-25T09:28:06;1031.3;;;36.2;29.2
74437;BME280;62868;52.360;30.424;2022-08-25T09:33:30;1031.2;;;36.4;28.9
74437;BME280;62868;52.360;30.424;2022-08-25T09:38:37;1031.2;;;36.4;28.3
74437;BME280;62868;52.360;30.424;2022-08-25T09:43:39;1031.2;;;36.3;27.8
74437;BME280;62868;52.360;30.424;2022-08-25T09:48:23;1031.1;;;36.4;27.2
74437;BME280;62868;52.360;30.424;2022-08-25T09:53:30;1031.1;;;36.2;26.6
74437;BME280;62868;52.360;30.424;2022-08-25T09:58:26;1031;;;36.2;26.2
74437;BME280;62868;52.360;30.424;2022-08-25T10:03:18;1031;;;36.5;25.9
74437;BME280;62868;52.360;30.424;2022-08-25T10:07:56;1031;;;36.5;25.7
74437;BME280;62868;52.360;30.424;2022-08-25T10:12:54;1030.9;;;36.4;25.4
74437;BME280;62868;52.360;30.424;2022-08-25T10:18:36;1030.9;;;36.6;25.1
74437;BME280;62868;52.360;30.424;2022-08-25T10:23:11;1030.8;;;36.4;24.6
74437;BME280;62868;52.360;30.424;2022-08-25T10:30:22;1030.7;;;36.6;24.5
74437;BME280;62868;52.360;30.424;2022-08-25T10:33:52;1030.8;;;36.6;24.1
74437;BME280;62868;52.360;30.424;2022-08-25T10:38:44;1030.7;;;36.6;24.1
74437;BME280;62868;52.360;30.424;2022-08-25T10:43:04;1030.7;;;36.1;24.4
74437;BME280;62868;52.360;30.424;2022-08-25T10:48:26;1030.7;;;35.3;24.9
74437;BME280;62868;52.360;30.424;2022-08-25T10:54:57;1030.6;;;35.4;24.8
74437;BME280;62868;52.360;30.424;2022-08-25T10:58:45;1030.6;;;35.8;24.5
74437;BME280;62868;52.360;30.424;2022-08-25T11:03:13;1030.6;;;36;24.4
74437;BME280;62868;52.360;30.424;2022-08-25T11:08:23;1030.5;;;35.7;24.5
74437;BME280;62868;52.360;30.424;2022-08-25T11:13:06;1030.4;;;36.3;24.2
74437;BME280;62868;52.360;30.424;2022-08-25T11:18:13;1030.4;;;36.2;24.1
74437;BME280;62868;52.360;30.424;2022-08-25T11:24:01;1030.4;;;35.6;24.6
74437;BME280;62868;52.360;30.424;2022-08-25T11:28:35;1030.3;;;35.4;24.8
74437;BME280;62868;52.360;30.424;2022-08-25T11:33:04;1030.3;;;34.9;25.1
74437;BME280;62868;52.360;30.424;2022-08-25T11:48:53;1030.2;;;34.2;25.7
74437;BME280;62868;52.360;30.424;2022-08-25T11:58:30;1030;;;35.2;24.8
74437;BME280;62868;52.360;30.424;2022-08-25T12:02:58;1030;;;35.6;24.5
74437;BME280;62868;52.360;30.424;2022-08-25T12:08:53;1029.9;;;36;24.2
74437;BME280;62868;52.360;30.424;2022-08-25T12:13:41;1029.8;;;36.5;23.8
74437;BME280;62868;52.360;30.424;2022-08-25T12:18:15;1029.8;;;36.7;23.4
74437;BME280;62868;52.360;30.424;2022-08-25T12:29:30;1029.8;;;36.7;23
74437;BME280;62868;52.360;30.424;2022-08-25T12:38:13;1029.7;;;36.7;23
74437;BME280;62868;52.360;30.424;2022-08-25T12:43:27;1029.7;;;36.7;22.9
74437;BME280;62868;52.360;30.424;2022-08-25T12:47:54;1029.6;;;36.7;22.7
74437;BME280;62868;52.360;30.424;2022-08-25T12:53:29;1029.6;;;36.6;22.5
74437;BME280;62868;52.360;30.424;2022-08-25T12:58:23;1029.6;;;36.5;22.6
74437;BME280;62868;52.360;30.424;2022-08-25T13:03:44;1029.5;;;36.3;22.8
74437;BME280;62868;52.360;30.424;2022-08-25T13:14:15;1029.5;;;35.8;23
74437;BME280;62868;52.360;30.424;2022-08-25T13:18:31;1029.5;;;35.6;23.2
74437;BME280;62868;52.360;30.424;2022-08-25T13:23:23;1029.5;;;35.4;23.2
74437;BME280;62868;52.360;30.424;2022-08-25T13:28:34;1029.5;;;35.4;23.1
74437;BME280;62868;52.360;30.424;2022-08-25T13:33:19;1029.4;;;35.4;23
74437;BME280;62868;52.360;30.424;2022-08-25T13:38:10;1029.3;;;35.3;22.9
74437;BME280;62868;52.360;30.424;2022-08-25T13:43:28;1029.3;;;35.4;22.8
74437;BME280;62868;52.360;30.424;2022-08-25T13:48:39;1029.2;;;35.4;22.6
74437;BME280;62868;52.360;30.424;2022-08-25T13:53:10;1029.2;;;35.6;22.5
74437;BME280;62868;52.360;30.424;2022-08-25T13:58:26;1029.1;;;35.8;22.4
74437;BME280;62868;52.360;30.424;2022-08-25T14:03:35;1029.1;;;35.9;22.5
74437;BME280;62868;52.360;30.424;2022-08-25T14:08:28;1029.1;;;35.7;22.6
74437;BME280;62868;52.360;30.424;2022-08-25T14:13:08;1029.1;;;35.3;22.8
74437;BME280;62868;52.360;30.424;2022-08-25T14:18:33;1029.1;;;34.7;23.1
74437;BME280;62868;52.360;30.424;2022-08-25T14:23:24;1029.1;;;34.2;23.5
74437;BME280;62868;52.360;30.424;2022-08-25T14:28:11;1029;;;33.9;23.8
74437;BME280;62868;52.360;30.424;2022-08-25T14:33:03;1029;;;33.7;23.8
74437;BME280;62868;52.360;30.424;2022-08-25T14:38:34;1029;;;33.6;23.8
74437;BME280;62868;52.360;30.424;2022-08-25T14:43:31;1028.9;;;33.5;24
74437;BME280;62868;52.360;30.424;2022-08-25T14:48:25;1028.9;;;33.5;24.1
74437;BME280;62868;52.360;30.424;2022-08-25T14:53:33;1028.9;;;33.5;24.2
74437;BME280;62868;52.360;30.424;2022-08-25T14:58:25;1028.8;;;33.5;24.4
74437;BME280;62868;52.360;30.424;2022-08-25T15:03:24;1028.8;;;33.4;24.6
74437;BME280;62868;52.360;30.424;2022-08-25T15:07:58;1028.8;;;33.5;24.7
74437;BME280;62868;52.360;30.424;2022-08-25T15:13:14;1028.8;;;33.4;24.8
74437;BME280;62868;52.360;30.424;2022-08-25T15:18:15;1028.7;;;33.4;24.7
74437;BME280;62868;52.360;30.424;2022-08-25T15:23:17;1028.7;;;33.4;24.8
74437;BME280;62868;52.360;30.424;2022-08-25T15:28:23;1028.6;;;33.4;24.9
74437;BME280;62868;52.360;30.424;2022-08-25T15:33:32;1028.6;;;33.4;25.1
74437;BME280;62868;52.360;30.424;2022-08-25T15:38:21;1028.5;;;33.4;25.1
74437;BME280;62868;52.360;30.424;2022-08-25T15:43:15;1028.6;;;33.3;25.3
74437;BME280;62868;52.360;30.424;2022-08-25T15:48:16;1028.6;;;33.1;25.5
74437;BME280;62868;52.360;30.424;2022-08-25T15:53:21;1028.6;;;32.9;25.8
74437;BME280;62868;52.360;30.424;2022-08-25T15:58:35;1028.6;;;32.6;26
74437;BME280;62868;52.360;30.424;2022-08-25T16:03:05;1028.6;;;32.3;26.2
74437;BME280;62868;52.360;30.424;2022-08-25T16:08:07;1028.6;;;32;26.4
74437;BME280;62868;52.360;30.424;2022-08-25T16:13:15;1028.6;;;31.8;26.6
74437;BME280;62868;52.360;30.424;2022-08-25T16:18:23;1028.6;;;31.6;26.9
74437;BME280;62868;52.360;30.424;2022-08-25T16:23:19;1028.7;;;31.4;27.2
74437;BME280;62868;52.360;30.424;2022-08-25T16:28:27;1028.6;;;31.2;27.5
74437;BME280;62868;52.360;30.424;2022-08-25T16:33:19;1028.7;;;30.9;27.7
74437;BME280;62868;52.360;30.424;2022-08-25T16:38:21;1028.6;;;30.7;28
74437;BME280;62868;52.360;30.424;2022-08-25T16:43:25;1028.6;;;30.5;28.5
74437;BME280;62868;52.360;30.424;2022-08-25T16:48:35;1028.7;;;30.2;28.8
74437;BME280;62868;52.360;30.424;2022-08-25T16:53:07;1028.7;;;29.9;29.5
74437;BME280;62868;52.360;30.424;2022-08-25T16:58:05;1028.7;;;29.6;30.1
74437;BME280;62868;52.360;30.424;2022-08-25T17:03:25;1028.7;;;29.2;30.9
74437;BME280;62868;52.360;30.424;2022-08-25T17:08:35;1028.7;;;28.8;31.7
74437;BME280;62868;52.360;30.424;2022-08-25T17:13:35;1028.7;;;28.6;32.3
74437;BME280;62868;52.360;30.424;2022-08-25T17:18:13;1028.7;;;28.3;33
74437;BME280;62868;52.360;30.424;2022-08-25T17:23:33;1028.8;;;28.1;33.5
74437;BME280;62868;52.360;30.424;2022-08-25T17:28:25;1028.8;;;27.8;34
74437;BME280;62868;52.360;30.424;2022-08-25T17:33:13;1028.8;;;27.6;34.5
74437;BME280;62868;52.360;30.424;2022-08-25T17:38:05;1028.9;;;27.3;35.1
74437;BME280;62868;52.360;30.424;2022-08-25T17:42:55;1029;;;27;35.7
74437;BME280;62868;52.360;30.424;2022-08-25T17:48:03;1029;;;26.8;36
74437;BME280;62868;52.360;30.424;2022-08-25T17:52:55;1029;;;26.6;36.3
74437;BME280;62868;52.360;30.424;2022-08-25T17:58:19;1029;;;26.4;36.6
74437;BME280;62868;52.360;30.424;2022-08-25T18:03:27;1029;;;26.2;37
74437;BME280;62868;52.360;30.424;2022-08-25T18:08:21;1029;;;26;37.1
74437;BME280;62868;52.360;30.424;2022-08-25T18:13:15;1029;;;25.8;37.7
74437;BME280;62868;52.360;30.424;2022-08-25T18:18:27;1029;;;25.6;38
74437;BME280;62868;52.360;30.424;2022-08-25T18:23:21;1029.1;;;25.4;38.3
74437;BME280;62868;52.360;30.424;2022-08-25T18:28:35;1029.1;;;25.2;38.7
74437;BME280;62868;52.360;30.424;2022-08-25T18:33:35;1029;;;25.1;39
74437;BME280;62868;52.360;30.424;2022-08-25T18:37:55;1029.1;;;24.9;39.3
74437;BME280;62868;52.360;30.424;2022-08-25T18:42:57;1029.1;;;24.8;39.5
74437;BME280;62868;52.360;30.424;2022-08-25T18:48:35;1029;;;24.7;39.4
74437;BME280;62868;52.360;30.424;2022-08-25T18:53:27;1029;;;24.7;39.4
74437;BME280;62868;52.360;30.424;2022-08-25T18:58:13;1029.1;;;24.6;39.8
74437;BME280;62868;52.360;30.424;2022-08-25T19:03:25;1029.1;;;24.5;40
74437;BME280;62868;52.360;30.424;2022-08-25T19:08:19;1029.1;;;24.4;40.2
74437;BME280;62868;52.360;30.424;2022-08-25T19:13:11;1029.1;;;24.3;40.5
74437;BME280;62868;52.360;30.424;2022-08-25T19:18:23;1029.1;;;24.1;40.8
74437;BME280;62868;52.360;30.424;2022-08-25T19:23:35;1029;;;24;41.1
74437;BME280;62868;52.360;30.424;2022-08-25T19:28:13;1029;;;23.9;41.2
74437;BME280;62868;52.360;30.424;2022-08-25T19:33:17;1029;;;23.8;41.3
74437;BME280;62868;52.360;30.424;2022-08-25T19:38:37;1029;;;23.6;41.8
74437;BME280;62868;52.360;30.424;2022-08-25T19:43:25;1029;;;23.5;42
74437;BME280;62868;52.360;30.424;2022-08-25T19:48:37;1029;;;23.4;42.3
74437;BME280;62868;52.360;30.424;2022-08-25T19:53:13;1029;;;23.4;42.5
74437;BME280;62868;52.360;30.424;2022-08-25T19:58:25;1029;;;23.3;42.8
74437;BME280;62868;52.360;30.424;2022-08-25T20:03:15;1029;;;23.3;43
74437;BME280;62868;52.360;30.424;2022-08-25T20:08:15;1029;;;23.2;43.1
74437;BME280;62868;52.360;30.424;2022-08-25T20:13:05;1029;;;23.2;43.2
74437;BME280;62868;52.360;30.424;2022-08-25T20:17:55;1029;;;23.2;43.4
74437;BME280;62868;52.360;30.424;2022-08-25T20:22:55;1029;;;23.2;43.6
74437;BME280;62868;52.360;30.424;2022-08-25T20:28:19;1029;;;23.2;43.7
74437;BME280;62868;52.360;30.424;2022-08-25T20:33:17;1029;;;23.2;44
74437;BME280;62868;52.360;30.424;2022-08-25T20:38:37;1029;;;23.1;44.2
74437;BME280;62868;52.360;30.424;2022-08-25T20:43:35;1029.1;;;23.1;44.4
74437;BME280;62868;52.360;30.424;2022-08-25T20:48:13;1029.1;;;23.1;44.7
74437;BME280;62868;52.360;30.424;2022-08-25T20:53:38;1029.1;;;23;44.7
74437;BME280;62868;52.360;30.424;2022-08-25T20:58:25;1029;;;23;44.8
74437;BME280;62868;52.360;30.424;2022-08-25T21:03:35;1029;;;22.9;44.9
74437;BME280;62868;52.360;30.424;2022-08-25T21:08:07;1029.1;;;22.8;45.2
74437;BME280;62868;52.360;30.424;2022-08-25T21:12:55;1029;;;22.8;45.4
74437;BME280;62868;52.360;30.424;2022-08-25T21:18:35;1029;;;22.8;45.5
74437;BME280;62868;52.360;30.424;2022-08-25T21:23:25;1029;;;22.8;45.6
74437;BME280;62868;52.360;30.424;2022-08-25T21:28:19;1029;;;22.8;45.7
74437;BME280;62868;52.360;30.424;2022-08-25T21:33:23;1029;;;22.7;46
74437;BME280;62868;52.360;30.424;2022-08-25T21:38:21;1029;;;22.6;46.1
74437;BME280;62868;52.360;30.424;2022-08-25T21:43:15;1028.9;;;22.5;46.4
74437;BME280;62868;52.360;30.424;2022-08-25T21:48:27;1028.9;;;22.4;46.7
74437;BME280;62868;52.360;30.424;2022-08-25T21:53:29;1028.9;;;22.3;46.9
74437;BME280;62868;52.360;30.424;2022-08-25T21:57:55;1028.9;;;22.2;47.2
74437;BME280;62868;52.360;30.424;2022-08-25T22:02:55;1028.9;;;22.1;47.4
74437;BME280;62868;52.360;30.424;2022-08-25T22:08:35;1028.9;;;22;47.6
74437;BME280;62868;52.360;30.424;2022-08-25T22:13:15;1028.9;;;21.9;47.9
74437;BME280;62868;52.360;30.424;2022-08-25T22:18:35;1028.9;;;21.8;47.9
74437;BME280;62868;52.360;30.424;2022-08-25T22:22:55;1028.9;;;21.8;48.1
74437;BME280;62868;52.360;30.424;2022-08-25T22:28:15;1028.8;;;21.7;48.3
74437;BME280;62868;52.360;30.424;2022-08-25T22:33:31;1028.7;;;21.7;48.6
74437;BME280;62868;52.360;30.424;2022-08-25T22:38:13;1028.7;;;21.6;48.7
74437;BME280;62868;52.360;30.424;2022-08-25T22:43:13;1028.7;;;21.6;48.9
74437;BME280;62868;52.360;30.424;2022-08-25T22:48:15;1028.7;;;21.5;49.1
74437;BME280;62868;52.360;30.424;2022-08-25T22:53:03;1028.7;;;21.5;49.4
74437;BME280;62868;52.360;30.424;2022-08-25T22:57:55;1028.7;;;21.5;49.3
74437;BME280;62868;52.360;30.424;2022-08-25T23:02:55;1028.7;;;21.4;49.5
74437;BME280;62868;52.360;30.424;2022-08-25T23:08:31;1028.6;;;21.3;49.7
74437;BME280;62868;52.360;30.424;2022-08-25T23:13:19;1028.7;;;21.3;49.8
74437;BME280;62868;52.360;30.424;2022-08-25T23:18:15;1028.6;;;21.2;50
74437;BME280;62868;52.360;30.424;2022-08-25T23:23:15;1028.6;;;21.2;50.2
74437;BME280;62868;52.360;30.424;2022-08-25T23:28:19;1028.6;;;21.1;50.3
74437;BME280;62868;52.360;30.424;2022-08-25T23:33:31;1028.6;;;21.1;50.2
74437;BME280;62868;52.360;30.424;2022-08-25T23:38:07;1028.5;;;21.1;50.4
74437;BME280;62868;52.360;30.424;2022-08-25T23:43:05;1028.5;;;21;50.6
74437;BME280;62868;52.360;30.424;2022-08-25T23:48:05;1028.5;;;20.9;50.8
74437;BME280;62868;52.360;30.424;2022-08-25T23:53:25;1028.4;;;20.8;51
74437;BME280;62868;52.360;30.424;2022-08-25T23:58:29;1028.4;;;20.8;51.2
